createdAt,value
2019-05-11T00:00:00.284Z,20.70
2019-05-11T00:02:31.172Z,18.80
2019-05-11T00:05:01.977Z,17.20
2019-05-11T00:07:32.778Z,21.47
2019-05-11T00:10:03.866Z,27.57
2019-05-11T00:12:36.227Z,23.77
2019-05-11T00:15:08.013Z,22.97
2019-05-11T00:17:38.788Z,23.07
2019-05-11T00:20:09.967Z,24.67
2019-05-11T00:22:40.981Z,26.23
2019-05-11T00:25:11.972Z,26.60
2019-05-11T00:27:42.776Z,25.00
2019-05-11T00:30:15.005Z,24.13
2019-05-11T00:32:45.757Z,25.30
2019-05-11T00:35:16.530Z,25.77
2019-05-11T00:37:47.303Z,25.43
2019-05-11T00:40:18.199Z,22.80
2019-05-11T00:42:48.973Z,24.50
2019-05-11T00:45:19.756Z,22.97
2019-05-11T00:47:50.517Z,25.37
2019-05-11T00:50:36.647Z,24.90
2019-05-11T00:52:53.813Z,24.00
2019-05-11T00:55:24.612Z,25.37
2019-05-11T00:57:55.528Z,22.73
2019-05-11T01:00:26.441Z,22.97
2019-05-11T01:02:57.321Z,25.13
2019-05-11T01:05:28.090Z,22.07
2019-05-11T01:07:58.938Z,21.43
2019-05-11T01:10:41.547Z,22.43
2019-05-11T01:13:03.212Z,21.73
2019-05-11T01:15:34.074Z,22.53
2019-05-11T01:18:04.971Z,21.17
2019-05-11T01:20:35.855Z,20.87
2019-05-11T01:23:06.732Z,23.47
2019-05-11T01:25:37.593Z,22.17
2019-05-11T01:28:08.785Z,20.57
2019-05-11T01:30:39.564Z,20.37
2019-05-11T01:33:10.402Z,21.23
2019-05-11T01:35:41.237Z,24.17
2019-05-11T01:38:12.125Z,24.03
2019-05-11T01:40:57.594Z,24.43
2019-05-11T01:43:16.838Z,21.73
2019-05-11T01:45:47.686Z,20.73
2019-05-11T01:48:18.463Z,23.20
2019-05-11T01:50:49.250Z,21.13
2019-05-11T01:53:20.038Z,21.43
2019-05-11T01:55:50.814Z,21.97
2019-05-11T01:58:21.621Z,20.60
2019-05-11T02:00:52.483Z,23.00
2019-05-11T02:03:23.382Z,22.27
2019-05-11T02:05:54.190Z,23.87
2019-05-11T02:08:25.009Z,24.03
2019-05-11T02:10:55.824Z,26.37
2019-05-11T02:13:26.639Z,21.50
2019-05-11T02:15:57.418Z,25.40
2019-05-11T02:18:28.169Z,23.23
2019-05-11T02:20:58.931Z,20.70
2019-05-11T02:23:30.814Z,23.00
2019-05-11T02:26:01.600Z,25.90
2019-05-11T02:28:32.453Z,26.33
2019-05-11T02:31:03.240Z,24.40
2019-05-11T02:33:34.276Z,24.43
2019-05-11T02:36:05.064Z,21.83
2019-05-11T02:38:37.007Z,23.87
2019-05-11T02:41:07.837Z,21.77
2019-05-11T02:43:38.937Z,20.60
2019-05-11T02:46:09.786Z,21.87
2019-05-11T02:48:40.623Z,20.77
2019-05-11T02:51:12.026Z,18.63
2019-05-11T02:53:44.651Z,22.33
2019-05-11T02:56:15.466Z,20.63
2019-05-11T02:58:46.853Z,20.70
2019-05-11T03:01:17.683Z,21.30
2019-05-11T03:03:48.545Z,23.90
2019-05-11T03:06:19.350Z,24.20
2019-05-11T03:08:50.302Z,21.63
2019-05-11T03:11:21.138Z,22.93
2019-05-11T03:13:51.994Z,22.97
2019-05-11T03:16:22.795Z,25.23
2019-05-11T03:18:53.654Z,20.83
2019-05-11T03:21:24.435Z,23.03
2019-05-11T03:23:55.218Z,23.53
2019-05-11T03:26:26.025Z,25.37
2019-05-11T03:28:59.669Z,28.47
2019-05-11T03:31:30.610Z,24.23
2019-05-11T03:34:01.516Z,25.23
2019-05-11T03:36:32.344Z,27.97
2019-05-11T03:39:03.283Z,29.13
2019-05-11T03:41:34.168Z,27.03
2019-05-11T03:44:04.956Z,27.33
2019-05-11T03:46:36.088Z,30.57
2019-05-11T03:49:06.853Z,31.57
2019-05-11T03:51:37.632Z,29.33
2019-05-11T03:54:08.429Z,32.27
2019-05-11T03:56:39.211Z,30.57
2019-05-11T03:59:10.332Z,32.03
2019-05-11T04:01:41.172Z,26.73
2019-05-11T04:04:16.216Z,28.00
2019-05-11T04:06:44.614Z,31.80
2019-05-11T04:09:15.534Z,33.93
2019-05-11T04:11:46.400Z,28.63
2019-05-11T04:14:17.319Z,26.20
2019-05-11T04:16:48.158Z,27.60
2019-05-11T04:19:19.056Z,29.10
2019-05-11T04:21:49.847Z,26.37
2019-05-11T04:24:21.904Z,27.80
2019-05-11T04:26:55.163Z,25.80
2019-05-11T04:29:25.970Z,28.67
2019-05-11T04:31:56.794Z,27.43
2019-05-11T04:34:27.755Z,28.37
2019-05-11T04:36:58.529Z,30.60
2019-05-11T04:39:30.300Z,26.83
2019-05-11T04:42:01.138Z,28.53
2019-05-11T04:44:31.971Z,25.07
2019-05-11T04:47:02.861Z,28.23
2019-05-11T04:49:33.758Z,26.97
2019-05-11T04:52:04.574Z,24.80
2019-05-11T04:54:35.428Z,25.50
2019-05-11T04:57:06.193Z,23.27
2019-05-11T04:59:37.008Z,23.50
2019-05-11T05:02:07.807Z,21.47
2019-05-11T05:04:38.679Z,23.57
2019-05-11T05:07:10.617Z,21.37
2019-05-11T05:09:44.575Z,22.10
2019-05-11T05:12:15.714Z,17.50
2019-05-11T05:14:46.770Z,21.63
2019-05-11T05:17:17.675Z,18.03
2019-05-11T05:19:48.582Z,17.27
2019-05-11T05:22:19.481Z,18.93
2019-05-11T05:24:50.358Z,17.60
2019-05-11T05:27:21.220Z,16.57
2019-05-11T05:29:52.068Z,19.70
2019-05-11T05:32:22.883Z,16.07
2019-05-11T05:34:53.761Z,18.00
2019-05-11T05:37:24.955Z,15.30
2019-05-11T05:39:57.026Z,17.43
2019-05-11T05:42:28.341Z,13.80
2019-05-11T05:44:59.153Z,14.87
2019-05-11T05:47:30.189Z,13.13
2019-05-11T05:50:04.294Z,14.63
2019-05-11T05:52:35.229Z,13.97
2019-05-11T05:55:07.552Z,12.50
2019-05-11T05:57:39.608Z,14.27
2019-05-11T06:00:10.700Z,17.53
2019-05-11T06:02:41.549Z,13.37
2019-05-11T06:05:12.533Z,16.87
2019-05-11T06:07:43.557Z,16.47
2019-05-11T06:10:15.812Z,12.17
2019-05-11T06:12:46.583Z,11.67
2019-05-11T06:15:17.584Z,12.43
2019-05-11T06:17:48.635Z,12.27
2019-05-11T06:20:19.761Z,12.77
2019-05-11T06:22:50.589Z,17.97
2019-05-11T06:25:24.066Z,14.93
2019-05-11T06:27:55.095Z,12.93
2019-05-11T06:30:25.899Z,11.70
2019-05-11T06:32:56.752Z,18.93
2019-05-11T06:35:27.625Z,15.37
2019-05-11T06:37:58.922Z,14.13
2019-05-11T06:40:29.823Z,14.03
2019-05-11T06:43:00.800Z,14.73
2019-05-11T06:45:32.738Z,14.10
2019-05-11T06:48:03.583Z,13.37
2019-05-11T06:50:34.514Z,13.60
2019-05-11T06:53:06.411Z,16.27
2019-05-11T06:55:37.296Z,13.87
2019-05-11T06:58:09.049Z,20.30
2019-05-11T07:00:39.948Z,19.83
2019-05-11T07:03:10.849Z,13.63
2019-05-11T07:05:41.762Z,14.20
2019-05-11T07:08:12.887Z,13.93
2019-05-11T07:10:43.821Z,14.20
2019-05-11T07:13:14.766Z,16.77
2019-05-11T07:15:47.053Z,14.10
2019-05-11T07:18:17.962Z,15.17
2019-05-11T07:20:50.808Z,15.27
2019-05-11T07:23:21.597Z,14.77
2019-05-11T07:25:52.403Z,13.40
2019-05-11T07:28:23.298Z,14.73
2019-05-11T07:30:55.606Z,15.33
2019-05-11T07:33:28.578Z,12.63
2019-05-11T07:35:58.938Z,16.27
2019-05-11T07:38:29.876Z,16.17
2019-05-11T07:41:00.762Z,15.47
2019-05-11T07:43:32.087Z,17.27
2019-05-11T07:46:02.991Z,17.30
2019-05-11T07:48:34.136Z,15.63
2019-05-11T07:51:05.138Z,16.17
2019-05-11T07:53:38.099Z,14.63
2019-05-11T07:56:08.707Z,13.03
2019-05-11T07:58:39.564Z,15.50
2019-05-11T08:01:10.585Z,13.73
2019-05-11T08:03:41.447Z,17.90
2019-05-11T08:06:12.531Z,18.30
2019-05-11T08:08:43.381Z,12.60
2019-05-11T08:11:14.202Z,14.40
2019-05-11T08:13:45.110Z,12.97
2019-05-11T08:16:18.319Z,15.90
2019-05-11T08:18:48.497Z,16.10
2019-05-11T08:21:19.410Z,15.47
2019-05-11T08:23:50.351Z,12.60
2019-05-11T08:26:21.250Z,17.13
2019-05-11T08:28:52.076Z,15.57
2019-05-11T08:31:23.681Z,16.27
2019-05-11T08:33:54.946Z,12.60
2019-05-11T08:36:25.923Z,16.20
2019-05-11T08:38:58.545Z,13.33
2019-05-11T08:41:29.272Z,13.33
2019-05-11T08:44:00.553Z,15.50
2019-05-11T08:46:31.424Z,12.90
2019-05-11T08:49:02.417Z,16.10
2019-05-11T08:51:33.244Z,13.37
2019-05-11T08:54:04.111Z,13.83
2019-05-11T08:56:35.127Z,12.90
2019-05-11T08:59:08.027Z,13.57
2019-05-11T09:01:39.477Z,13.47
2019-05-11T09:04:18.042Z,10.87
2019-05-11T09:06:48.113Z,12.73
2019-05-11T09:09:19.656Z,14.43
2019-05-11T09:11:50.470Z,14.90
2019-05-11T09:14:22.341Z,15.53
2019-05-11T09:16:53.331Z,12.45
2019-05-11T09:19:24.143Z,16.90
2019-05-11T09:21:55.003Z,12.17
2019-05-11T09:24:29.987Z,17.83
2019-05-11T09:27:00.834Z,12.60
2019-05-11T09:29:31.671Z,12.03
2019-05-11T09:32:02.648Z,12.37
2019-05-11T09:34:34.572Z,10.70
2019-05-11T09:37:13.346Z,13.67
2019-05-11T09:39:44.384Z,12.53
2019-05-11T09:42:15.183Z,10.80
2019-05-11T09:44:48.380Z,10.60
2019-05-11T09:47:19.065Z,10.80
2019-05-11T09:49:51.149Z,12.33
2019-05-11T10:12:02.185Z,14.20
2019-05-11T10:14:33.074Z,11.43
2019-05-11T10:17:04.351Z,9.67
2019-05-11T10:19:39.444Z,10.27
2019-05-11T10:22:11.219Z,12.40
2019-05-11T10:24:47.579Z,8.90
2019-05-11T10:27:18.884Z,8.23
2019-05-11T10:29:50.485Z,11.53
2019-05-11T10:32:21.404Z,7.77
2019-05-11T10:34:54.513Z,7.67
2019-05-11T10:37:25.411Z,7.50
2019-05-11T10:39:57.945Z,8.00
2019-05-11T10:42:28.858Z,9.67
2019-05-11T10:45:00.454Z,8.87
2019-05-11T10:47:31.316Z,9.60
2019-05-11T10:50:02.401Z,8.13
2019-05-11T10:52:33.299Z,10.37
2019-05-11T10:55:04.656Z,9.43
2019-05-11T10:57:38.656Z,10.00
2019-05-11T11:00:11.679Z,9.30
2019-05-11T11:02:43.434Z,7.73
2019-05-11T11:05:14.393Z,8.80
2019-05-11T11:07:48.372Z,9.20
2019-05-11T11:10:20.387Z,6.47
2019-05-11T11:12:53.834Z,7.28
2019-05-11T11:15:28.632Z,6.70
2019-05-11T11:17:58.787Z,6.93
2019-05-11T11:20:34.015Z,6.93
2019-05-11T11:23:04.948Z,9.40
2019-05-11T11:25:40.903Z,9.17
2019-05-11T11:28:13.528Z,15.70
2019-05-11T11:30:44.364Z,6.93
2019-05-11T11:33:15.549Z,9.70
2019-05-11T11:35:49.464Z,9.45
2019-05-11T11:38:24.108Z,10.20
2019-05-11T11:40:55.060Z,7.97
2019-05-11T11:43:33.811Z,9.03
2019-05-11T11:46:04.642Z,7.03
2019-05-11T11:48:38.625Z,7.20
2019-05-11T11:51:19.396Z,10.78
2019-05-11T11:53:50.287Z,8.88
2019-05-11T11:56:23.960Z,7.12
2019-05-11T11:58:57.799Z,8.58
2019-05-11T12:01:32.642Z,7.78
2019-05-11T12:04:03.834Z,7.83
2019-05-11T12:06:35.202Z,9.68
2019-05-11T12:09:09.196Z,7.55
2019-05-11T12:11:40.045Z,8.95
2019-05-11T12:14:15.871Z,7.50
2019-05-11T12:17:04.081Z,8.07
2019-05-11T12:19:23.660Z,7.40
2019-05-11T12:21:54.719Z,9.38
2019-05-11T12:24:25.663Z,7.75
2019-05-11T12:26:58.515Z,8.45
2019-05-11T12:29:29.031Z,8.73
2019-05-11T12:32:01.579Z,7.08
2019-05-11T12:34:34.216Z,7.17
2019-05-11T12:37:08.383Z,7.50
2019-05-11T12:39:38.830Z,8.15
2019-05-11T12:42:10.953Z,7.57
2019-05-11T12:44:41.877Z,10.32
2019-05-11T12:47:22.087Z,7.87
2019-05-11T12:49:45.290Z,4.50
2019-05-11T12:52:18.444Z,8.75
2019-05-11T12:54:49.280Z,6.65
2019-05-11T12:57:21.395Z,9.77
2019-05-11T12:59:54.808Z,10.15
2019-05-11T13:02:39.528Z,9.55
2019-05-11T13:05:12.560Z,8.43
2019-05-11T13:07:48.188Z,10.27
2019-05-11T13:10:24.747Z,8.70
2019-05-11T13:12:57.958Z,9.38
2019-05-11T13:15:28.346Z,8.23
2019-05-11T13:18:01.090Z,7.10
2019-05-11T13:20:37.928Z,7.63
2019-05-11T13:23:08.830Z,8.20
2019-05-11T13:25:39.726Z,7.10
2019-05-11T13:28:10.789Z,11.50
2019-05-11T13:30:42.477Z,7.90
2019-05-11T13:33:13.284Z,6.37
2019-05-11T13:35:44.252Z,6.33
2019-05-11T13:38:15.159Z,7.33
2019-05-11T13:40:48.536Z,7.83
2019-05-11T13:43:19.698Z,11.73
2019-05-11T13:45:50.583Z,9.67
2019-05-11T13:48:21.528Z,10.73
2019-05-11T13:50:53.430Z,6.77
2019-05-11T13:53:24.220Z,7.43
2019-05-11T13:55:58.400Z,9.57
2019-05-11T13:58:28.707Z,8.50
2019-05-11T14:00:59.506Z,7.63
2019-05-11T14:03:30.376Z,7.83
2019-05-11T14:06:01.313Z,7.90
2019-05-11T14:08:32.340Z,6.47
2019-05-11T14:11:03.241Z,7.43
2019-05-11T14:13:34.137Z,8.93
2019-05-11T14:16:05.221Z,8.23
2019-05-11T14:18:38.690Z,7.72
2019-05-11T14:21:09.739Z,9.83
2019-05-11T14:23:41.310Z,7.50
2019-05-11T14:26:13.338Z,9.67
2019-05-11T14:28:44.251Z,6.43
2019-05-11T14:31:15.209Z,7.50
2019-05-11T14:33:46.098Z,8.55
2019-05-11T14:36:18.438Z,9.23
2019-05-11T14:38:49.509Z,6.13
2019-05-11T14:41:20.509Z,9.17
2019-05-11T14:43:51.357Z,9.03
2019-05-11T14:46:22.403Z,7.00
2019-05-11T14:48:53.379Z,6.00
2019-05-11T14:51:24.299Z,3.57
2019-05-11T14:53:57.378Z,6.70
2019-05-11T14:56:28.021Z,5.63
2019-05-11T14:58:59.038Z,6.37
2019-05-11T15:01:29.912Z,6.07
2019-05-11T15:04:00.886Z,8.90
2019-05-11T15:06:31.991Z,4.63
2019-05-11T15:09:03.108Z,6.37
2019-05-11T15:11:33.914Z,4.23
2019-05-11T15:14:04.743Z,6.37
2019-05-11T15:16:38.158Z,4.90
2019-05-11T15:19:09.355Z,3.70
2019-05-11T15:21:40.191Z,5.78
2019-05-11T15:24:11.294Z,3.27
2019-05-11T15:26:42.365Z,3.70
2019-05-11T15:29:18.088Z,3.20
2019-05-11T15:31:48.745Z,2.13
2019-05-11T15:34:20.928Z,4.03
2019-05-11T15:36:52.997Z,3.80
2019-05-11T15:39:25.503Z,2.23
2019-05-11T15:42:09.209Z,3.37
2019-05-11T15:44:34.656Z,6.60
2019-05-11T15:47:07.753Z,3.67
2019-05-11T15:49:39.870Z,4.80
2019-05-11T15:52:10.908Z,4.70
2019-05-11T15:54:41.873Z,6.87
2019-05-11T15:57:12.787Z,2.77
2019-05-11T15:59:43.681Z,7.77
2019-05-11T16:02:14.586Z,3.70
2019-05-11T16:04:45.554Z,3.73
2019-05-11T16:07:18.635Z,5.43
2019-05-11T16:09:49.019Z,3.83
2019-05-11T16:12:22.045Z,3.57
2019-05-11T18:16:59.482Z,3.47
2019-05-11T18:19:30.581Z,3.35
2019-05-11T18:22:01.560Z,4.67
2019-05-11T18:24:32.477Z,3.50
2019-05-11T18:27:03.538Z,5.60
2019-05-11T18:29:34.631Z,3.17
2019-05-11T18:32:05.526Z,2.60
2019-05-11T18:34:37.696Z,3.00
2019-05-11T18:37:08.880Z,4.62
2019-05-11T18:39:40.467Z,4.97
2019-05-11T18:42:11.733Z,6.55
2019-05-11T18:44:43.791Z,2.87
2019-05-11T18:47:18.160Z,4.37
2019-05-11T18:49:48.512Z,3.55
2019-05-11T18:52:19.551Z,7.08
2019-05-11T18:54:50.743Z,3.17
2019-05-11T18:57:21.723Z,5.97
2019-05-11T18:59:52.700Z,4.55
2019-05-11T19:02:23.786Z,3.30
2019-05-11T19:04:54.814Z,2.52
2019-05-11T19:07:28.112Z,4.53
2019-05-11T19:09:58.371Z,5.30
2019-05-11T19:12:30.735Z,4.35
2019-05-11T19:15:01.770Z,3.20
2019-05-11T19:17:32.785Z,5.25
2019-05-11T19:20:03.778Z,6.70
2019-05-11T19:22:34.690Z,4.20
2019-05-11T19:25:05.937Z,6.45
2019-05-11T19:27:36.792Z,3.30
2019-05-11T19:30:10.034Z,3.85
2019-05-11T19:32:40.994Z,3.02
2019-05-11T19:35:12.010Z,3.50
2019-05-11T19:37:43.129Z,5.63
2019-05-11T19:40:14.223Z,1.90
2019-05-11T19:42:55.099Z,4.70
2019-05-11T19:45:29.085Z,4.07
2019-05-11T19:47:59.061Z,3.83
2019-05-11T19:50:30.111Z,2.98
2019-05-11T19:53:01.163Z,4.92
2019-05-11T19:55:32.047Z,6.97
2019-05-11T19:58:03.129Z,7.42
2019-05-11T20:00:34.104Z,3.02
2019-05-11T20:03:05.110Z,6.62
2019-05-11T20:05:38.017Z,4.67
2019-05-11T20:08:09.759Z,4.70
2019-05-11T20:10:40.761Z,7.60
2019-05-11T20:13:11.608Z,8.43
2019-05-11T20:15:42.689Z,4.35
2019-05-11T20:18:13.556Z,4.45
2019-05-11T20:20:48.409Z,6.15
2019-05-11T20:23:20.711Z,3.80
2019-05-11T20:25:51.612Z,6.10
2019-05-11T20:28:22.441Z,4.95
2019-05-11T20:30:53.361Z,2.05
2019-05-11T20:33:24.204Z,6.27
2019-05-11T20:35:55.198Z,6.45
2019-05-11T20:38:27.936Z,3.43
2019-05-11T20:40:59.174Z,6.75
2019-05-11T20:43:30.147Z,4.90
2019-05-11T20:46:02.170Z,3.27
2019-05-11T20:48:33.060Z,4.77
2019-05-11T20:51:03.986Z,4.23
2019-05-11T20:53:34.915Z,4.20
2019-05-11T20:56:05.888Z,3.92
2019-05-11T20:59:04.661Z,3.60
2019-05-11T21:01:35.563Z,3.10
2019-05-11T21:04:08.533Z,5.83
2019-05-11T21:06:39.166Z,3.83
2019-05-11T21:09:10.147Z,4.87
2019-05-11T21:11:41.131Z,5.72
2019-05-11T21:14:12.107Z,3.70
2019-05-11T21:16:43.031Z,3.62
2019-05-11T21:19:15.526Z,6.00
2019-05-11T21:21:53.244Z,2.95
2019-05-11T21:24:18.863Z,4.00
2019-05-11T21:26:49.944Z,4.10
2019-05-11T21:29:20.921Z,4.30
2019-05-11T21:31:51.790Z,2.70
2019-05-11T21:34:22.690Z,5.10
2019-05-11T21:36:53.686Z,4.28
2019-05-11T21:39:28.510Z,4.10
2019-05-11T21:41:59.187Z,3.98
2019-05-11T21:44:30.143Z,4.58
2019-05-11T21:47:02.873Z,2.90
2019-05-11T21:49:33.857Z,3.85
2019-05-11T21:52:04.949Z,3.08
2019-05-11T21:54:38.651Z,3.33
2019-05-11T21:57:09.764Z,2.70
2019-05-11T21:59:40.679Z,5.10
2019-05-11T22:02:11.614Z,4.63
2019-05-11T22:04:42.490Z,3.12
2019-05-11T22:07:13.680Z,6.27
2019-05-11T22:09:44.735Z,4.17
2019-05-11T22:12:15.600Z,4.07
2019-05-11T22:14:48.890Z,3.47
2019-05-11T22:17:19.818Z,3.47
2019-05-11T22:19:50.769Z,2.43
2019-05-11T22:22:25.253Z,2.40
2019-05-11T22:24:54.424Z,6.17
2019-05-11T22:27:27.598Z,4.37
2019-05-11T22:29:58.934Z,5.20
2019-05-11T22:32:30.030Z,4.53
2019-05-11T22:35:00.992Z,2.43
2019-05-11T22:37:31.943Z,1.73
2019-05-11T22:40:02.867Z,4.70
2019-05-11T22:42:33.763Z,4.77
2019-05-11T22:45:04.719Z,3.02
2019-05-11T22:47:35.797Z,3.02
2019-05-11T22:50:07.965Z,4.22
2019-05-11T22:52:40.872Z,4.27
2019-05-11T22:55:12.360Z,3.97
2019-05-11T22:57:43.518Z,3.35
2019-05-11T23:00:18.449Z,2.85
2019-05-11T23:02:49.533Z,3.65
2019-05-11T23:05:20.447Z,4.85
2019-05-11T23:07:51.378Z,5.75
2019-05-11T23:10:22.293Z,3.27
2019-05-11T23:12:54.940Z,3.70
2019-05-11T23:15:25.752Z,6.05
2019-05-11T23:17:59.738Z,2.85
2019-05-11T23:20:31.404Z,2.87
2019-05-11T23:23:02.340Z,4.37
2019-05-11T23:25:33.552Z,3.00
2019-05-11T23:28:04.514Z,4.55
2019-05-11T23:30:35.377Z,4.90
2019-05-11T23:33:07.957Z,4.22
2019-05-11T23:35:38.875Z,2.65
2019-05-11T23:38:09.681Z,4.27
2019-05-11T23:40:40.651Z,3.85
2019-05-11T23:43:11.489Z,3.07
2019-05-11T23:45:42.350Z,4.75
2019-05-11T23:48:13.179Z,7.00
2019-05-11T23:50:44.030Z,4.33
2019-05-11T23:53:14.880Z,3.33
2019-05-11T23:55:45.874Z,2.62
2019-05-11T23:58:19.417Z,3.25
